This is the latest recevied weather packets stored in our database for station/object N7CW. If no packets are shown the sender has not sent any weather packets the latest 10 day(s).
| Time | Temp. | Humidity | Pressure | Rain* | Wind** | Luminosity | Snow |
|---|---|---|---|---|---|---|---|
| 1777602928 | 16.67° C | 25% | 1012.1 hPa | 0 mm | - | 0 W/m² | - |
| 1777602624 | 16.67° C | 25% | 1011.8 hPa | 0 mm | - | 0 W/m² | - |
| 1777602319 | 17.22° C | 24% | 1012 hPa | 0 mm | - | 1 W/m² | - |
| 1777602015 | 17.22° C | 25% | 1012 hPa | 0 mm | - | 2 W/m² | - |
| 1777587133 | 20.56° C | 20% | 1012.4 hPa | 0 mm | - | 565 W/m² | - |
| 1777585612 | 21.67° C | 19% | 1012.7 hPa | 0 mm | - | 776 W/m² | - |
| 1777584093 | 21.11° C | 19% | 1013.1 hPa | 0 mm | - | 860 W/m² | - |
| 1777582580 | 21.11° C | 18% | 1013.2 hPa | 0 mm | - | 889 W/m² | - |
| 1777582275 | 20° C | 19% | 1013.4 hPa | 0 mm | - | 792 W/m² | - |
| 1777581362 | 21.11° C | 19% | 1013.4 hPa | 0 mm | - | 849 W/m² | - |
| 1777581057 | 21.11° C | 19% | 1013.3 hPa | 0 mm | - | 802 W/m² | - |
| 1777580756 | 20.56° C | 19% | 1013.5 hPa | 0 mm | - | 804 W/m² | - |
| 1777580148 | 20° C | 19% | 1013.5 hPa | 0 mm | - | 958 W/m² | - |
| 1777579845 | 20.56° C | 19% | 1013.8 hPa | 0 mm | - | 665 W/m² | - |
| 1777579544 | 20.56° C | 19% | 1013.6 hPa | 0 mm | - | 877 W/m² | - |
| 1777579244 | 20° C | 20% | 1013.9 hPa | 0 mm | - | 890 W/m² | - |
| 1777577726 | 19.44° C | 21% | 1014 hPa | 0 mm | - | 857 W/m² | - |
| 1777577423 | 19.44° C | 21% | 1014.1 hPa | 0 mm | - | 847 W/m² | - |
| 1777577120 | 20° C | 21% | 1014.4 hPa | 0 mm | - | 785 W/m² | - |
| 1777576816 | 20° C | 21% | 1014.1 hPa | 0 mm | - | 822 W/m² | - |
| 1777576515 | 19.44° C | 21% | 1014.4 hPa | 0 mm | - | 869 W/m² | - |
| 1777576212 | 19.44° C | 21% | 1014.5 hPa | 0 mm | - | 700 W/m² | - |
| 1777574693 | 18.89° C | 22% | 1014.8 hPa | 0 mm | - | 822 W/m² | - |
| 1777574084 | 18.33° C | 21% | 1014.7 hPa | 0 mm | - | 805 W/m² | - |
| 1777573780 | 18.89° C | 21% | 1015.3 hPa | 0 mm | - | 800 W/m² | - |
* Rain latest hour (hover to see other rain measurements)
** Current wind speed in m/s (hover to see current wind gust speed)